Time,TemperatureF,DewpointF,PressureIn,WindDirection,WindDirectionDegrees,WindSpeedMPH,WindSpeedGustMPH,Humidity,HourlyPrecipIn,Conditions,Clouds,dailyrainin,SoftwareType,DateUTC
2013-01-31 00:08:00,16.1,5.0,30.30,SSW,196,0.0,-999.0,63,-99.99,,,0.00,weatherlink.com 1.10,2013-01-31 07:08:00,
2013-01-31 00:23:00,15.4,5.0,30.28,WSW,244,5.0,-999.0,63,-99.99,,,0.00,weatherlink.com 1.10,2013-01-31 07:23:00,
2013-01-31 00:38:00,15.9,5.0,30.28,SSE,165,2.0,-999.0,62,-99.99,,,0.00,weatherlink.com 1.10,2013-01-31 07:38:00,
2013-01-31 00:53:00,16.1,5.0,30.28,SSW,213,0.0,-999.0,63,-99.99,,,0.00,weatherlink.com 1.10,2013-01-31 07:53:00,
2013-01-31 01:08:00,16.4,5.0,30.25,South,175,1.0,-999.0,60,-99.99,,,0.00,weatherlink.com 1.10,2013-01-31 08:08:00,
2013-01-31 01:23:00,15.7,5.0,30.29,South,174,4.0,-999.0,63,-99.99,,,0.00,weatherlink.com 1.10,2013-01-31 08:23:00,
2013-01-31 01:38:00,15.9,5.0,30.28,SSE,157,2.0,-999.0,63,-99.99,,,0.00,weatherlink.com 1.10,2013-01-31 08:38:00,
2013-01-31 01:53:00,16.2,5.0,30.29,South,177,0.0,-999.0,62,-99.99,,,0.00,weatherlink.com 1.10,2013-01-31 08:53:00,
2013-01-31 02:08:00,15.9,6.0,30.30,South,177,4.0,-999.0,64,-99.99,,,0.00,weatherlink.com 1.10,2013-01-31 09:08:00,
2013-01-31 02:23:00,15.6,5.0,30.30,South,177,3.0,-999.0,64,-99.99,,,0.00,weatherlink.com 1.10,2013-01-31 09:23:00,
2013-01-31 02:38:00,15.6,6.0,30.32,SSW,196,0.0,-999.0,65,-99.99,,,0.00,weatherlink.com 1.10,2013-01-31 09:38:00,
2013-01-31 02:52:00,15.2,6.0,30.34,South,175,2.0,-999.0,66,-99.99,,,0.00,weatherlink.com 1.10,2013-01-31 09:52:00,
2013-01-31 03:08:00,15.2,5.0,30.33,SSW,193,2.0,-999.0,65,-99.99,,,0.00,weatherlink.com 1.10,2013-01-31 10:08:00,
2013-01-31 03:23:00,15.1,6.0,30.36,South,182,4.0,-999.0,66,-99.99,,,0.00,weatherlink.com 1.10,2013-01-31 10:23:00,
2013-01-31 03:38:00,14.8,5.0,30.36,South,182,3.0,-999.0,66,-99.99,,,0.00,weatherlink.com 1.10,2013-01-31 10:38:00,
2013-01-31 03:53:00,14.1,5.0,30.36,SSW,194,0.0,-999.0,66,-99.99,,,0.00,weatherlink.com 1.10,2013-01-31 10:53:00,
2013-01-31 04:08:00,13.3,4.0,30.38,SSE,161,4.0,-999.0,67,-99.99,,,0.00,weatherlink.com 1.10,2013-01-31 11:08:00,
2013-01-31 04:23:00,13.1,4.0,30.40,South,173,0.0,-999.0,67,-99.99,,,0.00,weatherlink.com 1.10,2013-01-31 11:23:00,
2013-01-31 04:38:00,12.6,4.0,30.42,South,188,2.0,-999.0,67,-99.99,,,0.00,weatherlink.com 1.10,2013-01-31 11:38:00,
2013-01-31 05:09:00,12.3,3.0,30.44,South,169,5.0,-999.0,67,-99.99,,,0.00,weatherlink.com 1.10,2013-01-31 12:09:00,
2013-01-31 05:23:00,11.7,3.0,30.47,SSE,155,3.0,-999.0,69,-99.99,,,0.00,weatherlink.com 1.10,2013-01-31 12:23:00,
2013-01-31 05:38:00,11.2,2.0,30.46,South,171,1.0,-999.0,67,-99.99,,,0.00,weatherlink.com 1.10,2013-01-31 12:38:00,
2013-01-31 05:54:00,11.1,2.0,30.46,South,179,3.0,-999.0,68,-99.99,,,0.00,weatherlink.com 1.10,2013-01-31 12:54:00,
2013-01-31 06:09:00,16.1,6.0,30.42,South,188,0.0,-999.0,64,-99.99,,,0.00,weatherlink.com 1.10,2013-01-31 13:09:00,
2013-01-31 06:24:00,13.1,4.0,30.45,West,267,3.0,-999.0,67,-99.99,,,0.00,weatherlink.com 1.10,2013-01-31 13:24:00,
2013-01-31 06:39:00,12.9,3.0,30.46,West,263,0.0,-999.0,64,-99.99,,,0.00,weatherlink.com 1.10,2013-01-31 13:39:00,
2013-01-31 06:54:00,13.6,4.0,30.46,WSW,238,0.0,-999.0,66,-99.99,,,0.00,weatherlink.com 1.10,2013-01-31 13:54:00,
2013-01-31 07:09:00,12.1,2.0,30.50,SSW,209,0.0,-999.0,65,-99.99,,,0.00,weatherlink.com 1.10,2013-01-31 14:09:00,
2013-01-31 07:24:00,11.7,2.0,30.53,WNW,283,0.0,-999.0,64,-99.99,,,0.00,weatherlink.com 1.10,2013-01-31 14:24:00,
2013-01-31 07:39:00,12.8,3.0,30.52,ENE,67,0.0,-999.0,66,-99.99,,,0.00,weatherlink.com 1.10,2013-01-31 14:39:00,
2013-01-31 07:54:00,12.3,3.0,30.55,SSE,165,0.0,-999.0,67,-99.99,,,0.00,weatherlink.com 1.10,2013-01-31 14:54:00,
2013-01-31 08:09:00,13.8,4.0,30.52,SW,220,0.0,-999.0,64,-99.99,,,0.00,weatherlink.com 1.10,2013-01-31 15:09:00,
2013-01-31 08:24:00,14.1,4.0,30.54,SE,146,2.0,-999.0,65,-99.99,,,0.00,weatherlink.com 1.10,2013-01-31 15:24:00,
2013-01-31 08:39:00,14.6,4.0,30.55,SE,135,0.0,-999.0,64,-99.99,,,0.00,weatherlink.com 1.10,2013-01-31 15:39:00,
2013-01-31 08:54:00,16.1,5.0,30.52,WSW,245,0.0,-999.0,61,-99.99,,,0.00,weatherlink.com 1.10,2013-01-31 15:54:00,
2013-01-31 09:09:00,17.5,5.0,30.52,WSW,245,0.0,-999.0,58,-99.99,,,0.00,weatherlink.com 1.10,2013-01-31 16:09:00,
2013-01-31 09:23:00,19.4,6.0,30.50,WSW,245,0.0,-999.0,55,-99.99,,,0.00,weatherlink.com 1.10,2013-01-31 16:23:00,
2013-01-31 09:38:00,20.8,6.0,30.48,WSW,245,0.0,-999.0,54,-99.99,,,0.00,weatherlink.com 1.10,2013-01-31 16:38:00,
2013-01-31 09:54:00,23.6,6.0,30.47,WSW,245,0.0,-999.0,47,-99.99,,,0.00,weatherlink.com 1.10,2013-01-31 16:54:00,
2013-01-31 10:09:00,25.7,4.0,30.44,WSW,245,0.0,-999.0,40,-99.99,,,0.00,weatherlink.com 1.10,2013-01-31 17:09:00,
2013-01-31 10:39:00,30.7,4.0,30.39,ENE,57,0.0,-999.0,32,-99.99,,,0.00,weatherlink.com 1.10,2013-01-31 17:39:00,
2013-01-31 10:54:00,32.5,4.0,30.39,NE,41,2.0,-999.0,30,-99.99,,,0.00,weatherlink.com 1.10,2013-01-31 17:54:00,
2013-01-31 11:09:00,33.8,4.0,30.37,NE,44,0.0,-999.0,28,-99.99,,,0.00,weatherlink.com 1.10,2013-01-31 18:09:00,
2013-01-31 11:24:00,34.7,5.0,30.37,NE,44,0.0,-999.0,29,-99.99,,,0.00,weatherlink.com 1.10,2013-01-31 18:24:00,
2013-01-31 11:39:00,35.2,4.0,30.36,NNE,15,0.0,-999.0,27,-99.99,,,0.00,weatherlink.com 1.10,2013-01-31 18:39:00,
2013-01-31 11:54:00,35.3,4.0,30.35,NE,49,0.0,-999.0,27,-99.99,,,0.00,weatherlink.com 1.10,2013-01-31 18:54:00,
2013-01-31 12:09:00,36.0,5.0,30.33,NE,56,0.0,-999.0,27,-99.99,,,0.00,weatherlink.com 1.10,2013-01-31 19:09:00,
2013-01-31 12:24:00,37.6,5.0,30.30,NE,53,0.0,-999.0,25,-99.99,,,0.00,weatherlink.com 1.10,2013-01-31 19:24:00,
2013-01-31 12:39:00,39.3,3.0,30.29,NE,38,0.0,-999.0,22,-99.99,,,0.00,weatherlink.com 1.10,2013-01-31 19:39:00,
2013-01-31 12:54:00,40.1,3.0,30.27,East,83,0.0,-999.0,21,-99.99,,,0.00,weatherlink.com 1.10,2013-01-31 19:54:00,
2013-01-31 13:09:00,40.8,2.0,30.26,NNE,31,0.0,-999.0,20,-99.99,,,0.00,weatherlink.com 1.10,2013-01-31 20:09:00,
2013-01-31 13:24:00,39.6,1.0,30.27,NE,44,0.0,-999.0,20,-99.99,,,0.00,weatherlink.com 1.10,2013-01-31 20:24:00,
2013-01-31 13:39:00,40.1,4.0,30.26,ENE,69,0.0,-999.0,22,-99.99,,,0.00,weatherlink.com 1.10,2013-01-31 20:39:00,
2013-01-31 13:54:00,40.5,1.0,30.25,NE,36,0.0,-999.0,19,-99.99,,,0.00,weatherlink.com 1.10,2013-01-31 20:54:00,
2013-01-31 14:09:00,40.9,8.0,30.25,NE,35,0.0,-999.0,26,-99.99,,,0.00,weatherlink.com 1.10,2013-01-31 21:09:00,
2013-01-31 14:25:00,38.2,8.0,30.29,NE,56,0.0,-999.0,28,-99.99,,,0.00,weatherlink.com 1.10,2013-01-31 21:25:00,
2013-01-31 14:39:00,37.6,6.0,30.30,NE,46,0.0,-999.0,27,-99.99,,,0.00,weatherlink.com 1.10,2013-01-31 21:39:00,
2013-01-31 14:54:00,37.5,7.0,30.30,ENE,57,0.0,-999.0,28,-99.99,,,0.00,weatherlink.com 1.10,2013-01-31 21:54:00,
2013-01-31 15:09:00,36.0,7.0,30.32,NE,49,0.0,-999.0,30,-99.99,,,0.00,weatherlink.com 1.10,2013-01-31 22:09:00,
2013-01-31 15:25:00,35.9,9.0,30.34,NW,304,0.0,-999.0,33,-99.99,,,0.00,weatherlink.com 1.10,2013-01-31 22:25:00,
2013-01-31 15:40:00,35.9,9.0,30.35,NNE,19,0.0,-999.0,33,-99.99,,,0.00,weatherlink.com 1.10,2013-01-31 22:40:00,
2013-01-31 15:54:00,34.9,9.0,30.36,NNE,28,0.0,-999.0,34,-99.99,,,0.00,weatherlink.com 1.10,2013-01-31 22:54:00,
2013-01-31 16:10:00,33.8,9.0,30.38,NNE,30,0.0,-999.0,36,-99.99,,,0.00,weatherlink.com 1.10,2013-01-31 23:10:00,
2013-01-31 16:24:00,33.7,9.0,30.38,NNE,30,0.0,-999.0,35,-99.99,,,0.00,weatherlink.com 1.10,2013-01-31 23:24:00,
2013-01-31 16:39:00,33.1,9.0,30.41,WNW,294,0.0,-999.0,36,-99.99,,,0.00,weatherlink.com 1.10,2013-01-31 23:39:00,
2013-01-31 16:54:00,32.2,9.0,30.41,WNW,294,0.0,-999.0,38,-99.99,,,0.00,weatherlink.com 1.10,2013-01-31 23:54:00,
2013-01-31 17:10:00,31.2,10.0,30.44,WNW,294,0.0,-999.0,42,-99.99,,,0.00,weatherlink.com 1.10,2013-02-01 00:10:00,
2013-01-31 17:24:00,28.7,8.0,30.42,WNW,294,0.0,-999.0,42,-99.99,,,0.00,weatherlink.com 1.10,2013-02-01 00:24:00,
2013-01-31 17:39:00,27.5,10.0,30.42,WNW,294,0.0,-999.0,49,-99.99,,,0.00,weatherlink.com 1.10,2013-02-01 00:39:00,
2013-01-31 17:55:00,28.1,13.0,30.42,SW,232,0.0,-999.0,53,-99.99,,,0.00,weatherlink.com 1.10,2013-02-01 00:55:00,
2013-01-31 18:10:00,29.0,12.0,30.43,SW,225,0.0,-999.0,49,-99.99,,,0.00,weatherlink.com 1.10,2013-02-01 01:10:00,
2013-01-31 18:25:00,28.8,13.0,30.48,SSW,209,4.0,-999.0,51,-99.99,,,0.00,weatherlink.com 1.10,2013-02-01 01:25:00,
2013-01-31 18:40:00,28.7,13.0,30.48,SSW,192,5.0,-999.0,51,-99.99,,,0.00,weatherlink.com 1.10,2013-02-01 01:40:00,
2013-01-31 18:55:00,28.1,12.0,30.48,SSW,194,0.0,-999.0,52,-99.99,,,0.00,weatherlink.com 1.10,2013-02-01 01:55:00,
2013-01-31 19:10:00,27.8,13.0,30.48,SSE,151,0.0,-999.0,53,-99.99,,,0.00,weatherlink.com 1.10,2013-02-01 02:10:00,
2013-01-31 19:25:00,27.6,13.0,30.46,SSE,152,0.0,-999.0,55,-99.99,,,0.00,weatherlink.com 1.10,2013-02-01 02:25:00,
2013-01-31 19:40:00,27.3,13.0,30.48,SSE,153,1.0,-999.0,56,-99.99,,,0.00,weatherlink.com 1.10,2013-02-01 02:40:00,
2013-01-31 19:55:00,27.3,13.0,30.48,SW,229,0.0,-999.0,56,-99.99,,,0.00,weatherlink.com 1.10,2013-02-01 02:55:00,
2013-01-31 20:10:00,26.6,14.0,30.49,SW,236,3.0,-999.0,59,-99.99,,,0.00,weatherlink.com 1.10,2013-02-01 03:10:00,
2013-01-31 20:25:00,26.0,14.0,30.46,WSW,238,3.0,-999.0,60,-99.99,,,0.00,weatherlink.com 1.10,2013-02-01 03:25:00,
2013-01-31 20:40:00,25.1,14.0,30.48,WSW,238,3.0,-999.0,63,-99.99,,,0.00,weatherlink.com 1.10,2013-02-01 03:40:00,
2013-01-31 20:55:00,25.6,14.0,30.48,SSW,199,0.0,-999.0,63,-99.99,,,0.00,weatherlink.com 1.10,2013-02-01 03:55:00,
2013-01-31 21:10:00,23.9,14.0,30.47,SSW,200,0.0,-999.0,65,-99.99,,,0.00,weatherlink.com 1.10,2013-02-01 04:10:00,
2013-01-31 21:25:00,24.2,14.0,30.39,SSE,164,0.0,-999.0,66,-99.99,,,0.00,weatherlink.com 1.10,2013-02-01 04:25:00,
2013-01-31 21:40:00,23.8,14.0,30.39,SSW,192,0.0,-999.0,66,-99.99,,,0.00,weatherlink.com 1.10,2013-02-01 04:40:00,
2013-01-31 21:55:00,22.1,13.0,30.41,SSW,192,0.0,-999.0,69,-99.99,,,0.00,weatherlink.com 1.10,2013-02-01 04:55:00,
2013-01-31 22:10:00,20.8,11.0,30.44,South,182,0.0,-999.0,67,-99.99,,,0.00,weatherlink.com 1.10,2013-02-01 05:10:00,
2013-01-31 22:25:00,18.8,10.0,30.39,South,182,0.0,-999.0,69,-99.99,,,0.00,weatherlink.com 1.10,2013-02-01 05:25:00,
2013-01-31 22:40:00,18.0,10.0,30.39,South,173,0.0,-999.0,70,-99.99,,,0.00,weatherlink.com 1.10,2013-02-01 05:40:00,
2013-01-31 22:55:00,16.9,9.0,30.40,South,173,1.0,-999.0,71,-99.99,,,0.00,weatherlink.com 1.10,2013-02-01 05:55:00,
2013-01-31 23:10:00,18.0,10.0,30.38,South,177,2.0,-999.0,70,-99.99,,,0.00,weatherlink.com 1.10,2013-02-01 06:10:00,
2013-01-31 23:25:00,18.4,9.0,30.36,South,184,0.0,-999.0,68,-99.99,,,0.00,weatherlink.com 1.10,2013-02-01 06:25:00,
2013-01-31 23:40:00,18.0,9.0,30.36,South,178,1.0,-999.0,69,-99.99,,,0.00,weatherlink.com 1.10,2013-02-01 06:40:00,
2013-01-31 23:55:00,17.3,8.0,30.36,South,182,0.0,-999.0,68,-99.99,,,0.00,weatherlink.com 1.10,2013-02-01 06:55:00,